Terminal Aerodrome Forecast
Issued by NWS Boston, MA

Home | Current Version | Previous Version | Text Only | Print | Product List | Glossary On
Versions: 1 2 3 4 5 6 7 8 9 10 11 12 13 14 15 16 17 18 19 20 21 22 23 24 25 26 27 28 29 30 31 32 33 34 35 36 37 38 39 40 41 42 43 44
000
FTUS41 KBOX 301432 AAB
TAFBOS
TAF AMD
KBOS 301432Z 3015/3118 18004KT 6SM -SN BR SCT015 OVC045
     FM301515 17005KT 2SM -SN SCT008 OVC015
     FM301700 05005KT 2SM -SN SCT008 OVC015
     FM302100 33009KT 2SM -SN OVC015
     FM310000 32013G23KT 3SM -SN OVC015
     FM310500 32019G32KT 1SM -SN OVC010
     FM310900 32021G37KT 2SM -SN OVC010=

USA.gov is the U.S. government's official web portal to all federal, state and local government web resources and services.